Latest Weather Observations for Orange Airport

IDN60801

Issued at 9:02 am EDT Saturday 21 January 2017 (issued every 30 minutes, with the page automatically refreshed every 10 minutes)

About weather observations | Map of weather stations | Latest weather observations for NSW | Other Formats
Station Details ID: 063303 Name: ORANGE AIRPORT AWS Lat: -33.38 Lon: 149.13 Height: 944.65 m
Data from the previous 72 hours. | See also: Recent months at Orange Airport
Date/Time
EDT
Temp
°C
App
Temp
°C
Dew
Point
°C
Rel
Hum
%
Delta-T
°C
Wind Press
QNH
hPa
Press
MSL
hPa
Rain since
9am
mm
Dir  Spd
km/h
Gust
km/h
Spd
kts
Gust
kts
21/08:30am 16.7 16.1 13.6 82 1.8 E 9 13 5 7 1012.2 1007.3 40.0
21/08:00am 15.4 15.0 13.1 86 1.3 ESE 7 11 4 6 1012.0 1007.1 40.0
21/07:30am 13.4 12.9 12.0 91 0.8 S 6 7 3 4 1011.7 1006.7 40.0
21/07:00am 11.4 10.2 10.3 93 0.6 S 7 9 4 5 1011.3 1006.3 40.0
21/06:30am 8.9 7.1 7.8 93 0.6 SSW 7 9 4 5 1010.8 1005.8 40.0
21/06:00am 9.5 7.4 8.4 93 0.6 SW 9 11 5 6 1010.4 1005.4 40.0
21/05:30am 9.3 8.9 8.2 93 0.6 CALM 0 7 0 4 1009.7 1004.7 40.0
21/05:00am 9.6 8.1 8.5 93 0.6 SSW 6 9 3 5 1009.7 1004.7 40.0
21/04:30am 10.1 8.6 9.0 93 0.6 S 7 9 4 5 1009.2 1004.2 40.0
21/04:00am 10.5 8.7 9.4 93 0.6 ESE 9 11 5 6 1009.2 1004.2 40.0
21/03:30am 11.1 8.7 10.0 93 0.6 S 13 17 7 9 1009.0 1003.9 40.0
21/03:00am 11.5 10.9 10.4 93 0.6 SW 4 9 2 5 1009.0 1003.9 40.0
21/02:30am 11.6 10.1 10.5 93 0.6 SW 9 13 5 7 1008.5 1003.5 40.0
21/02:00am 12.3 10.9 10.9 91 0.8 S 9 13 5 7 1008.3 1003.3 40.0
21/01:30am 12.9 12.4 10.6 86 1.3 SW 4 15 2 8 1008.2 1003.2 40.0
21/01:00am 14.0 11.2 11.3 84 1.5 SW 17 24 9 13 1008.0 1002.9 40.0
21/12:30am 14.8 11.3 12.1 84 1.5 SW 22 32 12 17 1007.7 1002.7 40.0
21/12:00am 16.6 13.7 15.1 91 0.9 SW 24 35 13 19 1007.5 1002.5 40.0
 
Date/Time
EDT
Temp
°C
App
Temp
°C
Dew
Point
°C
Rel
Hum
%
Delta-T
°C
Wind Press
QNH
hPa
Press
MSL
hPa
Rain since
9am
mm
Dir  Spd
km/h
Gust
km/h
Spd
kts
Gust
kts
20/11:30pm 17.0 15.2 15.9 93 0.7 WSW 20 28 11 15 1007.0 1001.9 40.0
20/11:00pm 17.2 16.0 16.1 93 0.7 WSW 17 24 9 13 1006.4 1001.4 40.0
20/10:30pm 17.2 16.0 16.1 93 0.7 WSW 17 24 9 13 1006.3 1001.3 40.0
20/10:00pm 17.6 16.0 16.5 93 0.7 SW 20 33 11 18 1006.2 1001.2 40.0
20/09:30pm 17.7 15.8 16.6 93 0.7 SW 22 35 12 19 1005.6 1000.5 40.0
20/09:19pm 17.7 15.4 16.6 93 0.7 SW 24 33 13 18 1005.1 1000.0 40.0
20/09:00pm 17.8 14.8 16.7 93 0.7 SW 28 37 15 20 1004.8 999.7 40.0
20/08:30pm 18.2 14.9 17.0 93 0.8 SW 30 43 16 23 1004.1 999.0 40.0
20/08:14pm 18.5 14.9 17.3 93 0.8 WSW 32 44 17 24 1003.7 998.6 40.0
20/08:04pm 18.5 14.7 17.3 93 0.8 SW 33 43 18 23 1003.5 998.4 40.0
20/08:00pm 18.5 14.9 17.3 93 0.8 SW 32 46 17 25 1003.6 998.5 40.0
20/07:30pm 19.1 14.8 17.9 93 0.8 WSW 37 50 20 27 1003.3 998.1 40.0
20/07:21pm 19.2 15.9 18.0 93 0.8 WSW 32 50 17 27 1003.3 998.1 40.0
20/07:10pm 19.3 16.1 18.1 93 0.8 WSW 32 44 17 24 1002.8 997.7 40.0
20/07:00pm 19.4 15.6 18.2 93 0.8 WSW 35 50 19 27 1002.9 997.8 40.0
20/06:33pm 20.0 16.5 18.8 93 0.8 WSW 35 50 19 27 1002.2 997.0 38.6
20/06:30pm 20.2 16.8 19.0 93 0.8 WSW 35 46 19 25 1002.3 997.1 38.4
20/06:28pm 20.2 16.4 19.0 93 0.8 WSW 37 46 20 25 1002.2 997.0 38.4
20/06:00pm 20.8 16.5 19.6 93 0.8 WSW 41 56 22 30 1001.2 996.0 35.8
20/05:55pm 21.1 17.7 19.9 93 0.8 W 37 52 20 28 1001.3 996.1 34.0
20/05:51pm 21.4 18.2 20.2 93 0.8 WNW 37 52 20 28 1001.3 996.1 32.4
20/05:47pm 21.8 19.5 20.6 93 0.8 WNW 33 43 18 23 1001.0 995.8 29.0
20/05:30pm 23.8 20.3 20.5 82 2.2 NW 39 61 21 33 1000.3 995.1 27.2
20/05:23pm 23.9 20.4 20.4 81 2.4 NW 39 61 21 33 1000.1 994.9 27.2
20/05:00pm 23.1 20.4 21.2 89 1.3 WNW 37 50 20 27 1000.7 995.6 27.2
20/04:30pm 24.1 20.9 20.2 79 2.6 WNW 37 57 20 31 1000.8 995.7 27.2
20/04:00pm 24.1 19.8 19.6 76 3.0 WNW 41 69 22 37 1000.7 995.6 27.2
20/03:35pm 25.1 21.4 19.2 70 3.9 WNW 37 59 20 32 1001.2 996.0 27.2
20/03:30pm 25.5 22.9 20.7 75 3.3 WNW 35 50 19 27 1001.3 996.1 27.2
20/03:19pm 24.2 21.6 19.5 75 3.1 WNW 32 50 17 27 1001.5 996.4 27.2
20/03:00pm 23.7 19.8 19.6 78 2.7 WNW 39 52 21 28 1001.6 996.5 27.2
20/02:30pm 23.8 21.2 20.7 83 2.1 WNW 35 54 19 29 1001.6 996.5 27.2
20/02:00pm 22.4 19.2 21.0 92 1.0 WNW 39 57 21 31 1002.2 997.0 27.2
20/01:38pm 22.1 18.8 20.9 93 0.8 WNW 39 59 21 32 1002.5 997.4 27.2
20/01:30pm 22.0 18.7 20.8 93 0.8 WNW 39 54 21 29 1002.7 997.6 27.2
20/01:04pm 21.7 17.5 20.5 93 0.8 WNW 43 61 23 33 1003.1 998.0 27.0
20/01:03pm 21.8 17.6 20.6 93 0.8 WNW 43 57 23 31 1003.1 998.0 27.0
20/01:00pm 21.7 18.2 20.5 93 0.8 WNW 39 54 21 29 1003.3 998.1 27.0
20/12:54pm 21.3 19.4 20.1 93 0.8 NW 30 52 16 28 1003.5 998.4 27.0
20/12:52pm 21.2 19.6 20.0 93 0.8 NW 28 37 15 20 1003.5 998.4 27.0
20/12:30pm 21.1 19.4 19.9 93 0.8 WNW 28 43 15 23 1004.0 998.9 25.2
20/12:09pm 20.8 18.2 19.6 93 0.8 WNW 32 43 17 23 1004.2 999.1 24.6
20/12:00pm 20.5 17.6 19.3 93 0.8 NW 33 46 18 25 1004.2 999.1 24.6
20/11:51am 20.3 17.4 19.3 94 0.7 NW 33 48 18 26 1004.2 999.1 24.2
20/11:30am 20.0 17.9 19.0 94 0.7 WNW 28 39 15 21 1004.8 999.7 22.6
20/11:20am 19.7 17.5 18.7 94 0.6 NW 28 37 15 20 1004.9 999.8 21.8
20/11:00am 19.4 17.4 18.2 93 0.8 NW 26 33 14 18 1004.9 999.8 19.0
20/10:46am 19.2 18.2 18.0 93 0.8 NW 20 26 11 14 1005.0 999.9 16.8
20/10:30am 19.2 16.7 18.0 93 0.8 NW 28 37 15 20 1004.9 999.8 15.4
20/10:01am 19.5 17.1 18.3 93 0.8 NW 28 41 15 22 1005.0 999.9 6.8
20/10:00am 19.6 17.3 18.4 93 0.8 NW 28 39 15 21 1005.0 999.9 5.8
20/09:52am 19.7 17.4 18.5 93 0.8 NNW 28 43 15 23 1004.5 999.4 3.0
20/09:33am 20.0 16.9 18.8 93 0.8 NNW 33 44 18 24 1004.4 999.3 2.2
20/09:30am 20.5 17.6 19.3 93 0.8 NNW 33 44 18 24 1004.8 999.7 0.2
20/09:02am 20.2 16.4 19.0 93 0.8 N 37 56 20 30 1004.7 999.6 0.0
20/09:00am 20.1 16.3 18.9 93 0.8 N 37 50 20 27 1004.8 999.7 0.4
20/08:30am 19.8 15.8 18.6 93 0.8 NNW 37 50 20 27 1005.7 1000.6 0.4
20/08:00am 20.3 17.5 19.1 93 0.8 NNW 32 48 17 26 1006.2 1001.2 0.0
20/07:44am 19.0 16.4 17.8 93 0.8 N 28 43 15 23 1006.3 1001.3 0.0
20/07:30am 18.1 16.7 17.0 93 0.7 N 20 30 11 16 1006.7 1001.6 0.0
20/07:00am 17.4 14.6 16.3 93 0.7 N 26 32 14 17 1006.2 1001.2 0.0
20/06:30am 16.0 14.4 14.9 93 0.7 N 17 20 9 11 1006.7 1001.6 0.0
20/06:00am 14.6 12.9 13.5 93 0.6 N 15 17 8 9 1006.8 1001.7 0.0
20/05:30am 14.5 12.3 13.4 93 0.6 N 17 20 9 11 1006.8 1001.7 0.0
20/05:00am 14.3 12.1 13.2 93 0.6 NNE 17 19 9 10 1006.9 1001.8 0.0
20/04:30am 13.8 12.6 12.7 93 0.6 NNE 11 15 6 8 1007.0 1001.9 0.0
20/04:00am 14.0 12.4 12.9 93 0.6 NE 13 17 7 9 1007.3 1002.3 0.0
20/03:30am 14.1 12.6 13.0 93 0.6 NE 13 17 7 9 1008.0 1002.9 0.0
20/03:00am 14.4 12.6 13.3 93 0.6 NE 15 22 8 12 1008.3 1003.3 0.0
20/02:30am 14.5 12.7 13.4 93 0.6 NE 15 20 8 11 1008.8 1003.8 0.0
20/02:00am 14.4 13.7 13.3 93 0.6 NE 9 11 5 6 1009.6 1004.6 0.0
20/01:30am 14.7 14.1 13.6 93 0.6 NE 9 15 5 8 1010.2 1005.2 0.0
20/01:00am 15.0 14.2 13.9 93 0.6 NE 11 17 6 9 1010.5 1005.5 0.0
20/12:30am 15.3 14.4 13.8 91 0.9 NE 11 15 6 8 1010.7 1005.7 0.0
20/12:00am 15.5 14.6 13.7 89 1.1 NE 11 13 6 7 1011.1 1006.2 0.0
 
Date/Time
EDT
Temp
°C
App
Temp
°C
Dew
Point
°C
Rel
Hum
%
Delta-T
°C
Wind Press
QNH
hPa
Press
MSL
hPa
Rain since
9am
mm
Dir  Spd
km/h
Gust
km/h
Spd
kts
Gust
kts
19/11:30pm 16.1 15.3 13.9 87 1.3 NE 11 15 6 8 1011.3 1006.3 0.0
19/11:00pm 16.5 14.9 14.0 85 1.5 NE 15 22 8 12 1011.5 1006.5 0.0
19/10:30pm 17.0 15.0 13.9 82 1.8 NE 17 26 9 14 1011.6 1006.6 0.0
19/10:00pm 17.8 16.2 13.9 78 2.3 NE 15 24 8 13 1011.7 1006.7 0.0
19/09:30pm 18.9 17.3 14.0 73 2.9 ENE 15 22 8 12 1011.5 1006.5 0.0
19/09:00pm 20.2 18.3 14.1 68 3.7 ENE 17 26 9 14 1011.1 1006.2 0.0
19/08:30pm 21.2 19.6 13.9 63 4.4 NE 15 20 8 11 1011.1 1006.2 0.0
19/08:00pm 22.7 20.7 14.0 58 5.3 ENE 17 24 9 13 1010.9 1005.9 0.0
19/07:30pm 25.4 23.4 13.9 49 7.1 NE 17 24 9 13 1010.6 1005.6 0.0
19/07:00pm 28.9 26.6 9.1 29 11.5 WSW 11 19 6 10 1010.3 1005.3 0.0
19/06:30pm 30.1 25.9 9.6 28 12.0 WSW 22 28 12 15 1010.4 1005.4 0.0
19/06:00pm 30.3 25.5 8.7 26 12.5 WSW 24 35 13 19 1010.4 1005.4 0.0
19/05:30pm 32.2 27.5 9.1 24 13.5 W 24 39 13 21 1010.7 1005.7 0.0
19/05:00pm 31.7 28.5 9.8 26 13.0 WSW 17 28 9 15 1011.0 1006.1 0.0
19/04:30pm 30.4 28.3 13.7 36 10.4 NW 17 28 9 15 1011.4 1006.4 0.0
19/04:00pm 30.5 27.8 12.9 34 10.9 W 19 26 10 14 1011.8 1006.8 0.0
19/03:30pm 31.4 28.1 11.7 29 12.0 WSW 20 37 11 20 1012.1 1007.2 0.0
19/03:00pm 30.5 28.9 12.9 34 10.9 SW 13 20 7 11 1012.6 1007.6 0.0
19/02:30pm 29.7 28.3 12.2 34 10.6 WNW 11 30 6 16 1013.0 1008.1 0.0
19/02:00pm 29.0 27.9 13.2 37 9.7 WSW 11 20 6 11 1013.3 1008.4 0.0
19/01:30pm 27.2 25.8 14.6 46 7.9 N 15 22 8 12 1013.8 1008.8 0.0
19/01:00pm 26.8 26.4 14.2 46 7.8 N 9 20 5 11 1014.2 1009.3 0.0
19/12:30pm 26.7 25.8 14.8 48 7.5 N 13 22 7 12 1014.4 1009.5 0.0
19/12:00pm 25.5 24.2 14.9 52 6.6 NNE 15 24 8 13 1014.8 1009.8 0.0
19/11:30am 24.8 23.6 15.1 54 6.1 NNE 15 24 8 13 1015.1 1010.2 0.0
19/11:00am 23.5 22.1 14.5 57 5.5 NE 15 24 8 13 1015.3 1010.4 0.0
19/10:30am 22.3 20.6 14.7 62 4.7 NE 17 26 9 14 1015.3 1010.4 0.0
19/10:00am 22.5 21.2 15.8 66 4.2 NE 17 24 9 13 1015.4 1010.5 0.0
19/09:30am 20.8 19.2 14.9 69 3.6 NE 17 24 9 13 1015.5 1010.6 0.0
19/09:00am 19.5 17.9 15.0 75 2.8 NE 17 24 9 13 1015.6 1010.7 0.0
19/08:30am 18.3 16.2 14.6 79 2.2 NE 19 24 10 13 1015.7 1010.8 0.0
19/08:00am 17.6 16.0 14.9 84 1.6 NE 17 24 9 13 1015.5 1010.6 0.0
19/07:30am 17.1 15.9 15.1 88 1.2 NE 15 22 8 12 1015.2 1010.3 0.0
19/07:00am 16.8 15.7 15.2 90 1.0 NE 15 20 8 11 1015.1 1010.2 0.0
19/06:33am 16.7 16.0 15.4 92 0.8 NE 13 20 7 11 1014.8 1009.8 0.0
19/06:30am 16.7 16.0 15.4 92 0.8 NE 13 22 7 12 1014.8 1009.8 0.0
19/06:00am 17.0 16.3 15.5 91 0.9 NE 13 17 7 9 1014.8 1009.8 0.0
19/05:30am 17.1 15.3 15.6 91 0.9 NE 19 26 10 14 1014.3 1009.4 0.0
19/05:00am 17.5 16.3 16.0 91 0.9 NE 17 26 9 14 1014.3 1009.4 0.0
19/04:30am 17.8 16.7 16.3 91 0.9 NE 17 26 9 14 1014.4 1009.5 0.0
19/04:00am 17.8 17.3 16.0 89 1.1 ENE 13 19 7 10 1014.4 1009.5 0.0
19/03:30am 17.8 17.4 16.3 91 0.9 NE 13 19 7 10 1014.4 1009.5 0.0
19/03:00am 17.6 17.2 16.3 92 0.8 NE 13 19 7 10 1014.5 1009.6 0.0
19/02:45am 17.5 17.2 16.4 93 0.7 NE 13 17 7 9 1014.8 1009.8 0.0
19/02:30am 17.3 17.1 15.8 91 0.9 NE 11 17 6 9 1015.0 1010.1 0.0
19/02:00am 17.8 18.0 15.8 88 1.2 ENE 9 13 5 7 1015.3 1010.4 0.0
19/01:30am 18.4 18.3 16.0 86 1.5 NE 11 15 6 8 1015.2 1010.3 0.0
19/01:00am 19.0 18.9 16.0 83 1.9 NE 11 15 6 8 1015.5 1010.6 0.0
19/12:30am 19.0 18.7 15.5 80 2.2 NE 11 13 6 7 1015.7 1010.8 0.0
19/12:00am 18.6 19.1 15.1 80 2.1 ENE 6 11 3 6 1015.9 1011.0 0.0
 
Date/Time
EDT
Temp
°C
App
Temp
°C
Dew
Point
°C
Rel
Hum
%
Delta-T
°C
Wind Press
QNH
hPa
Press
MSL
hPa
Rain since
9am
mm
Dir  Spd
km/h
Gust
km/h
Spd
kts
Gust
kts
18/11:30pm 18.9 18.3 13.5 71 3.2 E 9 13 5 7 1016.0 1011.1 0.0
18/11:00pm 18.9 18.6 8.8 52 5.5 CALM 0 0 0 0 1015.4 1010.5 0.0
18/10:30pm 20.4 20.2 9.0 48 6.3 CALM 0 2 0 1 1015.6 1010.7 0.0
18/10:00pm 22.6 20.2 8.7 41 7.7 S 11 13 6 7 1015.5 1010.6 0.0
18/09:30pm 24.2 21.2 7.8 35 9.1 SSW 13 17 7 9 1015.4 1010.5 0.0
18/09:00pm 25.2 21.6 6.9 31 10.0 SSW 15 17 8 9 1015.1 1010.2 0.0
18/08:30pm 26.2 22.1 4.6 25 11.4 SW 15 19 8 10 1014.8 1009.8 0.0
18/08:00pm 28.6 23.6 3.5 20 13.2 SW 19 26 10 14 1014.3 1009.4 0.0
18/07:30pm 30.3 25.1 3.4 18 14.3 SSW 20 32 11 17 1013.8 1008.8 0.0
18/07:00pm 31.4 24.4 1.7 15 15.4 SSW 28 39 15 21 1013.3 1008.4 0.0
18/06:30pm 32.5 25.4 1.6 14 16.1 SSW 28 41 15 22 1012.7 1007.7 0.0
18/06:00pm 33.7 25.7 0.4 12 17.2 SW 32 48 17 26 1012.2 1007.3 0.0
18/05:54pm 33.9 26.1 -0.7 11 17.5 SW 30 48 16 26 1012.2 1007.3 0.0
18/05:30pm 34.3 24.7 -1.7 10 18.0 SW 39 56 21 30 1011.6 1006.6 0.0
18/05:07pm 35.3 27.5 -0.9 10 18.4 SSW 30 48 16 26 1011.6 1006.6 0.0
18/05:00pm 34.8 26.0 -1.3 10 18.2 SSW 35 48 19 26 1011.6 1006.6 0.0
18/04:30pm 36.5 28.4 0.0 10 19.0 SW 32 50 17 27 1011.6 1006.6 0.0
18/04:19pm 35.5 26.9 -2.2 9 18.8 WSW 33 52 18 28 1011.7 1006.7 0.0
18/04:00pm 36.3 28.2 1.2 11 18.6 WSW 33 46 18 25 1012.0 1007.1 0.0
18/03:58pm 36.2 27.7 1.1 11 18.5 WSW 35 54 19 29 1012.0 1007.1 0.0
18/03:40pm 36.3 28.2 1.2 11 18.6 W 33 46 18 25 1012.2 1007.3 0.0
18/03:30pm 36.6 28.0 2.6 12 18.4 WSW 37 52 20 28 1012.5 1007.5 0.0
18/03:16pm 35.3 27.5 2.7 13 17.6 W 33 48 18 26 1012.6 1007.6 0.0
18/03:00pm 36.2 28.5 5.5 15 17.4 W 35 57 19 31 1012.8 1007.8 0.0
18/02:35pm 36.3 30.0 7.4 17 16.8 W 30 50 16 27 1013.1 1008.2 0.0
18/02:30pm 35.8 29.8 7.0 17 16.6 WNW 28 46 15 25 1013.1 1008.2 0.0
18/02:28pm 36.2 30.4 8.1 18 16.5 WNW 28 46 15 25 1013.1 1008.2 0.0
18/02:00pm 35.8 30.7 7.8 18 16.4 W 24 39 13 21 1013.4 1008.5 0.0
18/01:30pm 34.3 29.3 9.5 22 14.8 WNW 26 39 14 21 1013.8 1008.8 0.0
18/01:07pm 35.1 29.5 8.8 20 15.5 WNW 28 46 15 25 1014.0 1009.1 0.0
18/01:00pm 34.9 29.8 10.7 23 14.7 NW 28 41 15 22 1014.2 1009.3 0.0
18/12:30pm 33.7 28.5 11.5 26 13.6 WNW 30 46 16 25 1014.7 1009.7 0.0
18/12:13pm 33.8 28.9 12.7 27 13.1 WNW 30 50 16 27 1014.4 1009.5 0.0
18/12:00pm 33.6 29.4 13.6 29 12.6 WNW 28 44 15 24 1014.5 1009.6 0.0
18/11:31am 32.7 29.1 15.2 34 11.2 NW 28 48 15 26 1014.5 1009.6 0.0
18/11:30am 32.8 29.2 15.3 34 11.3 NW 28 44 15 24 1014.5 1009.6 0.0
18/11:00am 31.3 27.1 15.7 39 10.1 NW 32 48 17 26 1014.9 1010.0 0.0
18/10:55am 31.3 27.3 15.3 38 10.3 NW 30 48 16 26 1014.8 1009.8 0.0
18/10:30am 30.7 25.9 15.5 39 9.7 NW 35 46 19 25 1015.0 1010.1 0.0
18/10:00am 29.5 24.7 15.6 43 8.9 NW 35 46 19 25 1014.9 1010.0 0.0
18/09:41am 28.9 24.6 15.8 45 8.4 NW 33 52 18 28 1015.0 1010.1 0.0
18/09:30am 28.5 24.3 15.8 46 8.1 NNW 32 48 17 26 1014.9 1010.0 0.0

Other Formats:

Comma delimited format used in spreadsheet applications
http://www.bom.gov.au/fwo/IDN60801/IDN60801.95726.axf

JavaScript Object Notation format (JSON) in row-major order
http://www.bom.gov.au/fwo/IDN60801/IDN60801.95726.json